Guilherme Rocha

Recruteur - Atletico Goianiense
4 Déc 2028
Lundi
Processus

Personnalité

Adaptabilité (13) Ambition (8) Controverse (3) Loyauté (15) Pression (15) Professionnalisme (13) Sportivité (2) Tempérament (14)

Profil

Style d'entraînement Démocratique
Diplôme Continental Pro
Détermination 11
Gestion des joueurs 3
Motivation 8
Discipline 10
Satisfaction professionnelle
100%
Fatigue
0%
Rôle Recruteur
Salaire 71.2K p/s
Contrat 14.03.2029

Performance

Comportement Bon
Efficacité de l'entraînement
23%
Développement des joueurs
55%
Prévention des blessures
30%
Mise en place tactique
20%

Événements récents

A participé à une réunion de recrutement maintenant
A recommandé une cible de transfert maintenant
A recommandé une cible de transfert maintenant
A recommandé une cible de transfert maintenant
A recommandé une cible de transfert 7j
A recommandé une cible de transfert 7j
A recommandé une cible de transfert 7j
A recommandé une cible de transfert 7j

Suivi en cours

174
Joueur Club Statut Capacité Confiance Observé Dernière observation Dernier vote
Emiliano Gómez Boston River Actif 129 / 117 40% 1 30.11.2028 -
Agustín Colazo Unión de Santa Fe Actif 124 / 121 40% 1 30.11.2028 -
Maclyn Biokpo Jenewari Rivers United Actif 110 / 112 40% 1 30.11.2028 -
Alexsandro Faísca Vitória Actif 99 / 99 76% 1 17.07.2028 -
Matheus Corrêa Corinthians Actif 87 / 99 76% 1 26.06.2028 Approuver
Gusttavo Flamengo Actif 83 / 94 76% 1 12.06.2028 Approuver
Taiwo Awoniyi Middlesbrough Actif 142 / 150 40% 2 31.05.2028 -
Sam Greenwood Bristol City Actif 129 / 125 40% 6 31.05.2028 -
Rodrigo Muniz Fulham Actif 146 / 136 40% 3 31.05.2028 -
Babis Kostoulas Oxford United Actif 135 / 141 40% 1 30.05.2028 -
Tyrese Campbell Sheffield United Actif 133 / 132 40% 6 29.05.2028 -
Róbert Boženík Stoke City Actif 138 / 132 40% 3 29.05.2028 -
Giacomo Raspadori Atalanta Actif 160 / 149 40% 1 26.05.2028 -
Aune Heggebø West Bromwich Albion Actif 141 / 135 40% 3 24.05.2028 -
Vitinha Genoa Actif 140 / 139 40% 2 23.05.2028 -
Rocco Vata Watford Actif 129 / 117 40% 1 23.05.2028 -
Jayden Danns Bradford City Actif 139 / 130 40% 3 22.05.2028 -
Igor Tyjon Barrow AFC Actif 115 / 126 40% 3 21.05.2028 -
Leo Castledine Middlesbrough Actif 130 / 133 40% 1 20.05.2028 -
Patson Daka Leicester City Actif 132 / 138 40% 4 17.05.2028 -
Malik Mothersille Stockport County Actif 128 / 118 40% 3 17.05.2028 -
André Shinyashiki Plymouth Argyle Actif 101 / 112 40% 1 17.05.2028 -
Jorge Cabezas Hurtado Watford Actif 122 / 116 40% 1 15.05.2028 -
Timur Suleimanov Nizhniy Novgorod Actif 117 / 111 40% 1 13.05.2028 -
Ante Crnac Bristol Rovers Actif 123 / 136 40% 4 11.05.2028 -
Mees Rijks Bristol Rovers Actif 115 / 125 40% 4 11.05.2028 -
Aaron Collins Milton Keynes Dons Actif 126 / 113 40% 1 11.05.2028 -
Mateus Mané Burnley Actif 135 / 157 40% 2 09.05.2028 -
Pedro Mendes Modena Actif 127 / 122 40% 1 09.05.2028 -
Ryan Graydon Salford City Actif 113 / 115 40% 2 07.05.2028 -
Callum O'Hare Sheffield United Actif 145 / 136 40% 3 05.05.2028 -
Mohamed-Ali Cho Hull City Actif 152 / 146 40% 1 05.05.2028 -
Joe Gelhardt Hull City Actif 139 / 143 40% 2 04.05.2028 -
Zito Luvumbo Cagliari Actif 134 / 126 40% 1 04.05.2028 -
Admir Bristrić Cambridge United Actif 113 / 116 40% 1 04.05.2028 -
Brandon Thomas-Asante Blackpool Actif 132 / 122 40% 1 02.05.2028 -
M'Bala Nzola Cagliari Actif 127 / 141 40% 1 17.04.2028 -
Miro Arsenal Tula Actif 127 / 113 40% 5 16.04.2028 -
Charlie Kelman Barnsley Actif 120 / 109 40% 1 16.04.2028 -
Nicolò Zaniolo Udinese Actif 148 / 137 40% 1 16.04.2028 -
Musa Barrow ES Setif Actif 137 / 133 40% 6 14.04.2028 -
Victor Adeboyejo Cotonsport Garoua Actif 120 / 108 40% 1 14.04.2028 -
Sam Nombe Milton Keynes Dons Actif 111 / 105 40% 2 07.04.2028 -
Stephen Humphrys Bradford City Actif 121 / 104 40% 3 06.04.2028 -
Evidence Makgopa Orlando Pirates Actif 112 / 113 40% 2 05.04.2028 -
Walid Cheddira Avellino Actif 126 / 120 40% 1 05.04.2028 -
Oli McBurnie Hull City Actif 137 / 139 40% 2 04.04.2028 -
Matty Stevens AFC Wimbledon Actif 102 / 111 40% 1 04.04.2028 -
Daniel Karlsbakk Sarpsborg 08 Actif 130 / 139 40% 3 03.04.2028 -
Kyle Wootton Stockport County Actif 127 / 126 40% 2 03.04.2028 -
Tyreece Campbell Charlton Athletic Actif 121 / 133 40% 5 02.04.2028 -
Siyabonga Mabena Bidvest Wits Actif 126 / 132 40% 3 01.04.2028 -
Víctor Guzmán Sporting CP Actif 103 / 98 40% 1 01.04.2028 -
Victor Torp Bristol Rovers Actif 129 / 139 40% 2 30.03.2028 -
Sam Dalby Bolton Wanderers Actif 110 / 121 40% 1 30.03.2028 -
Vyacheslav Grulev Nizhniy Novgorod Actif 112 / 124 40% 2 28.03.2028 -
Arthur Sales Maritzburg United Actif 110 / 126 40% 3 26.03.2028 -
Augustus Kargbo Blackburn Rovers Actif 117 / 128 40% 4 26.03.2028 -
Samuele Mulattieri Sassuolo Actif 139 / 133 40% 1 22.03.2028 -
Kahiser Lenis Ceará Actif 125 / 125 40% 2 19.03.2028 -
Khanyisa Mayo CR Belouizdad Actif 117 / 100 40% 1 18.03.2028 -
Yuri Tanque Criciuma Actif 125 / 115 40% 4 17.03.2028 -
Pedro Marques Apollon Actif 118 / 108 40% 1 17.03.2028 -
Igor Neves Paysandu Actif 109 / 104 40% 4 15.03.2028 -
Patrick Agyemang Derby County Actif 126 / 127 40% 2 12.03.2028 -
Erick Dolly Black Aces Actif 130 / 112 40% 1 12.03.2028 -
Isidro Pitta Bragantino Actif 136 / 134 40% 3 10.03.2028 -
Johnny Kenny Preston Actif 128 / 122 40% 1 09.03.2028 -
Marezi Portsmouth Actif 130 / 117 40% 1 09.03.2028 -
Erik Botheim Viking Actif 132 / 137 40% 1 08.03.2028 -
Marcus Browne AFC Wimbledon Actif 107 / 111 40% 1 03.03.2028 -
Leonardo Campana New England Revolution Actif 128 / 129 40% 7 01.03.2028 -
Louis Munteanu Charlotte Football Club Actif 138 / 120 40% 3 28.02.2028 -
Kévin Denkey FC Cincinnati Actif 123 / 129 40% 4 25.02.2028 -
Liel Abada Inter Miami CF Actif 151 / 145 40% 5 23.02.2028 -
Tai Baribo Austin FC Actif 125 / 127 40% 2 21.02.2028 -
Yegor Kortsov Dinamo Brest Actif 106 / 119 40% 1 21.02.2028 -
Talles Magno New York City Actif 127 / 126 40% 3 20.02.2028 -
Callum Lang Preston Actif 126 / 119 40% 1 20.02.2028 -
Timo Werner San Jose Earthquakes Actif 130 / 119 40% 2 19.02.2028 -
Peter Christiansen Haugesund Actif 132 / 126 40% 1 16.02.2028 -
Jesus Ferreira Seattle Sounders Actif 138 / 134 40% 3 15.02.2028 -
Wessam Abou Ali Columbus Crew Actif 127 / 124 40% 2 15.02.2028 -
Indiana Vassilev Philadelphia Union Actif 118 / 108 40% 1 14.02.2028 -
Cheikh Sabaly Vancouver Whitecaps Actif 131 / 133 40% 7 09.02.2028 -
Dejan Joveljić Seattle Sounders Actif 134 / 128 40% 4 08.02.2028 -
Victor Olatunji Real Salt Lake Actif 127 / 112 40% 1 08.02.2028 -
Björn Hedlöf Helsingborg Actif 90 / 90 40% 1 08.02.2028 -
Agustín Anello Philadelphia Union Actif 137 / 130 40% 1 06.02.2028 -
Dániel Gazdag New England Revolution Actif 129 / 132 40% 1 04.02.2028 -
Cristian Barros Cerro Actif 115 / 114 40% 1 04.02.2028 -
Renato Kayser Vitória Actif 128 / 117 40% 1 04.02.2028 -
Alejo Cruz Juventud Actif 123 / 127 40% 4 03.02.2028 -
Petar Musa FC Dallas Actif 130 / 126 40% 2 02.02.2028 -
Yousef Salech Cardiff City Actif 127 / 127 40% 1 02.02.2028 -
Santiago Sala Güemes Actif 121 / 112 40% 1 30.01.2028 -
Brandon Vázquez Austin FC Actif 126 / 115 40% 1 30.01.2028 -
Martín Ojeda Orlando City Actif 139 / 133 40% 4 29.01.2028 -
Germán Berterame Inter Miami CF Actif 139 / 134 40% 2 29.01.2028 -
Ignacio Russo Tigre Actif 133 / 122 40% 2 28.01.2028 -
Alexis Cuello San Lorenzo Actif 127 / 121 40% 1 27.01.2028 -
Daniel Barrea Godoy Cruz Actif 122 / 123 40% 1 25.01.2028 -
Lisandro Cabrera Maipú Actif 119 / 108 40% 1 24.01.2028 -
Miguel Falé Pacos de Ferreira Actif 116 / 102 40% 1 23.01.2028 -
Pep Biel Charlotte Football Club Actif 139 / 132 40% 1 23.01.2028 -
Ignacio Ramírez Newell's Old Boys Actif 120 / 125 40% 1 22.01.2028 -
Nicolás Barros Schelotto Gimnasia La Plata Actif 126 / 126 40% 1 22.01.2028 -
Giovanni Cantizano Fulham Actif 114 / 128 40% 2 20.01.2028 -
Gabe Forsyth Colchester United Actif 102 / 120 40% 1 20.01.2028 -
Ryan Kavuma-McQueen Accrington Stanley Actif 114 / 135 40% 1 20.01.2028 -
Romelle Donovan Brentford Actif 137 / 131 40% 1 17.01.2028 -
Nicolás Ferreira Artigas Actif 81 / 84 40% 1 17.01.2028 -
Tadeo Allende Inter Miami CF Actif 117 / 123 40% 1 15.01.2028 -
Marcelo Torres Gimnasia La Plata Actif 118 / 122 40% 1 15.01.2028 -
Santiago Rodríguez Gimnasia y Esgrima Actif 128 / 117 40% 1 14.01.2028 -
Federico Coletta Benfica Actif 99 / 102 40% 1 14.01.2028 -
Matias Siltanen Malmo FF Actif 125 / 142 40% 2 10.01.2028 -
Gorka Gorosabel Real Sociedad Actif 112 / 114 40% 1 10.01.2028 -
Juan David Rueda Alianza Petrolera Actif 109 / 114 40% 1 10.01.2028 -
Adalberto Peñaranda Deportivo Tachira Actif 124 / 117 40% 1 09.01.2028 -
Alan Bonansea Colón Actif 110 / 108 40% 1 06.01.2028 -
Kerim Alajbegović Modena Actif 137 / 148 40% 1 05.01.2028 -
Hwang Hee-Chan Wolverhampton Actif 141 / 144 40% 1 05.01.2028 -
Seydou Fofana Pacos de Ferreira Actif 94 / 107 40% 1 11.12.2027 -
Bernardo Lima Porto Actif 114 / 107 40% 6 09.12.2027 -
Tiago Gordillo San Miguel Actif 83 / 87 40% 1 09.12.2027 -
Gonçalo Oliveira Benfica Actif 107 / 112 40% 4 30.11.2027 -
Sampson Dweh Mallorca Actif 133 / 134 66% 1 01.06.2027 Approuver
Tiago Freitas Benfica Actif 109 / 119 40% 2 31.05.2027 -
Bence Dárdai VfL Wolfsburg Actif 130 / 145 40% 1 31.05.2027 -
Ezra Mayers West Ham United Actif 115 / 133 40% 2 04.05.2027 -
Victor Hernandez Santa Fe Actif 119 / 127 40% 1 04.05.2027 -
Caleb Yirenkyi Coventry City Actif 130 / 145 40% 3 02.05.2027 -
Jenson Jones Walsall Actif 97 / 89 40% 4 02.05.2027 -
Eliás Montiel Borussia Dortmund Actif 129 / 143 40% 2 30.04.2027 -
Chari Giwa US Bougouni Actif 80 / 89 40% 2 28.04.2027 -
Kamaldeen Atiemo Wa All Stars Actif 98 / 109 40% 1 27.04.2027 -
Olivier Leroux Mouscron Actif 93 / 110 40% 1 26.04.2027 -
Martim Cunha Porto Actif 96 / 107 40% 1 26.04.2027 -
João Capucho Benfica Actif 105 / 100 40% 2 25.04.2027 -
Riley Owen Stevenage Actif 96 / 111 40% 5 24.04.2027 -
Sascha Britschgi AC Milan Actif 120 / 123 40% 2 23.04.2027 -
Leandro Martins Benfica Actif 94 / 105 40% 3 23.04.2027 -
Charlie Gray Fleetwood Town Actif 88 / 99 40% 2 23.04.2027 -
Kevin Pinto Benfica Actif 85 / 93 40% 1 16.04.2027 -
Kiani Inge Groningen Actif 98 / 113 40% 1 16.04.2027 -
Zane Albarus Shrewsbury Town Actif 97 / 98 40% 3 15.04.2027 -
Tomás Pérez Porto Actif 126 / 117 40% 2 13.04.2027 -
Andrea Bertoncini Triestina Actif 79 / 96 40% 1 13.04.2027 -
Afriyie Sulemana WAFA Actif 84 / 92 40% 1 12.04.2027 -
Bassem Hassan Masr El Makasa Actif 102 / 109 40% 1 11.04.2027 -
Miguel Figueiredo Benfica Actif 110 / 124 40% 2 09.04.2027 -
Jan Bürger Northampton Town Actif 116 / 124 40% 2 07.04.2027 -
Kazunari Kita Real Sociedad Actif 101 / 98 40% 1 07.04.2027 -
Cheveyo Tsawa Club Brugge Actif 122 / 128 40% 3 05.04.2027 -
Edwin Asamoah Berekum Chelsea Actif 90 / 84 40% 1 30.03.2027 -
Mpho Khethang FC Diarra Actif 92 / 77 40% 1 25.03.2027 -
Vasco Santos Oliveirense Actif 82 / 88 40% 2 24.03.2027 -
Emirhan Başyiğit Sivasspor Actif 105 / 106 40% 1 24.03.2027 -
James Dornelly Peterborough United Actif 112 / 108 40% 1 19.03.2027 -
Henrique Silva Santa Clara Actif 104 / 113 40% 1 18.03.2027 -
Javi Vázquez Torreense Actif 108 / 109 40% 1 15.12.2026 -
Tony Strata Vitoria Guimaraes Actif 127 / 112 40% 1 15.12.2026 -
Dylan Collard Lusitânia Lourosa Actif 129 / 112 40% 1 15.12.2026 -
Orlando Neto São Paulo Actif 100 / 89 69% 1 06.12.2026 Approuver
Rui Pedro Felgueiras Actif 97 / 113 40% 1 14.08.2026 -
Carles Gil New England Revolution Actif 125 / 145 40% 1 14.08.2026 -
Francisco Fydriszewski Junior Actif 117 / 120 40% 1 13.08.2026 -
Figueiredo Alverca Actif 112 / 114 40% 1 06.08.2026 -
Juan Muñoz Leiria Actif 111 / 134 40% 1 05.08.2026 -
Manu Garrido Vizela Actif 113 / 112 40% 1 05.08.2026 -
Alfonso Trezza Arouca Actif 111 / 126 40% 1 02.08.2026 -
Yanis Begraoui Estoril Praia Actif 131 / 142 40% 1 02.08.2026 -
Alexey Miranchuk Atlanta United FC Actif 138 / 149 40% 1 02.08.2026 -